sensor_id;sensor_type;location;lat;lon;timestamp;P1;durP1;ratioP1;P2;durP2;ratioP2
3331;SDS011;1678;50.94845400;5.30809100;2022-07-29T00:02:07;8.20;;;2.83;;
3331;SDS011;1678;50.94845400;5.30809100;2022-07-29T00:04:36;2.80;;;2.70;;
3331;SDS011;1678;50.94845400;5.30809100;2022-07-29T00:07:04;5.30;;;3.63;;
3331;SDS011;1678;50.94845400;5.30809100;2022-07-29T00:09:32;6.30;;;3.40;;
3331;SDS011;1678;50.94845400;5.30809100;2022-07-29T00:12:18;5.33;;;3.27;;
3331;SDS011;1678;50.94845400;5.30809100;2022-07-29T00:14:52;3.73;;;3.43;;
3331;SDS011;1678;50.94845400;5.30809100;2022-07-29T00:17:20;3.17;;;2.97;;
3331;SDS011;1678;50.94845400;5.30809100;2022-07-29T00:19:48;2.90;;;2.70;;
3331;SDS011;1678;50.94845400;5.30809100;2022-07-29T00:22:17;3.10;;;2.83;;
3331;SDS011;1678;50.94845400;5.30809100;2022-07-29T00:24:46;3.63;;;2.80;;
3331;SDS011;1678;50.94845400;5.30809100;2022-07-29T00:27:15;4.33;;;3.87;;
3331;SDS011;1678;50.94845400;5.30809100;2022-07-29T00:29:45;3.40;;;3.10;;
3331;SDS011;1678;50.94845400;5.30809100;2022-07-29T00:32:13;6.70;;;3.10;;
3331;SDS011;1678;50.94845400;5.30809100;2022-07-29T00:34:41;4.13;;;3.70;;
3331;SDS011;1678;50.94845400;5.30809100;2022-07-29T00:37:26;3.00;;;2.83;;
3331;SDS011;1678;50.94845400;5.30809100;2022-07-29T00:39:55;6.80;;;4.10;;
3331;SDS011;1678;50.94845400;5.30809100;2022-07-29T00:42:23;8.50;;;3.17;;
3331;SDS011;1678;50.94845400;5.30809100;2022-07-29T00:44:52;3.90;;;3.00;;
3331;SDS011;1678;50.94845400;5.30809100;2022-07-29T00:47:20;12.30;;;4.80;;
3331;SDS011;1678;50.94845400;5.30809100;2022-07-29T00:49:48;5.23;;;3.00;;
3331;SDS011;1678;50.94845400;5.30809100;2022-07-29T00:52:16;3.10;;;2.90;;
3331;SDS011;1678;50.94845400;5.30809100;2022-07-29T00:54:44;3.57;;;3.30;;
3331;SDS011;1678;50.94845400;5.30809100;2022-07-29T00:57:12;5.73;;;3.30;;
3331;SDS011;1678;50.94845400;5.30809100;2022-07-29T00:59:41;6.60;;;3.03;;
3331;SDS011;1678;50.94845400;5.30809100;2022-07-29T01:02:10;6.93;;;4.20;;
3331;SDS011;1678;50.94845400;5.30809100;2022-07-29T01:04:38;3.63;;;2.90;;
3331;SDS011;1678;50.94845400;5.30809100;2022-07-29T01:07:07;3.03;;;2.80;;
3331;SDS011;1678;50.94845400;5.30809100;2022-07-29T01:09:35;9.20;;;3.23;;
3331;SDS011;1678;50.94845400;5.30809100;2022-07-29T01:12:12;3.17;;;2.97;;
3331;SDS011;1678;50.94845400;5.30809100;2022-07-29T01:14:42;5.73;;;3.07;;
3331;SDS011;1678;50.94845400;5.30809100;2022-07-29T01:17:13;3.63;;;2.73;;
3331;SDS011;1678;50.94845400;5.30809100;2022-07-29T01:19:49;2.33;;;2.23;;
3331;SDS011;1678;50.94845400;5.30809100;2022-07-29T01:22:35;7.00;;;3.97;;
3331;SDS011;1678;50.94845400;5.30809100;2022-07-29T01:25:19;4.00;;;2.90;;
3331;SDS011;1678;50.94845400;5.30809100;2022-07-29T01:28:08;4.30;;;1.93;;
3331;SDS011;1678;50.94845400;5.30809100;2022-07-29T01:30:51;5.37;;;2.63;;
3331;SDS011;1678;50.94845400;5.30809100;2022-07-29T01:33:23;6.43;;;2.80;;
3331;SDS011;1678;50.94845400;5.30809100;2022-07-29T01:36:12;2.37;;;2.17;;
3331;SDS011;1678;50.94845400;5.30809100;2022-07-29T01:38:44;4.93;;;2.53;;
3331;SDS011;1678;50.94845400;5.30809100;2022-07-29T01:41:19;4.73;;;2.13;;
3331;SDS011;1678;50.94845400;5.30809100;2022-07-29T01:43:49;6.50;;;2.67;;
3331;SDS011;1678;50.94845400;5.30809100;2022-07-29T01:46:23;2.20;;;2.10;;
3331;SDS011;1678;50.94845400;5.30809100;2022-07-29T01:48:59;2.50;;;2.30;;
3331;SDS011;1678;50.94845400;5.30809100;2022-07-29T01:51:36;14.30;;;3.50;;
3331;SDS011;1678;50.94845400;5.30809100;2022-07-29T01:54:10;10.90;;;2.53;;
3331;SDS011;1678;50.94845400;5.30809100;2022-07-29T01:56:42;6.30;;;3.10;;
3331;SDS011;1678;50.94845400;5.30809100;2022-07-29T01:59:12;2.60;;;2.40;;
3331;SDS011;1678;50.94845400;5.30809100;2022-07-29T02:01:42;10.57;;;3.37;;
3331;SDS011;1678;50.94845400;5.30809100;2022-07-29T02:04:12;4.30;;;3.40;;
3331;SDS011;1678;50.94845400;5.30809100;2022-07-29T02:06:56;4.00;;;2.90;;
3331;SDS011;1678;50.94845400;5.30809100;2022-07-29T02:09:27;2.27;;;2.13;;
3331;SDS011;1678;50.94845400;5.30809100;2022-07-29T02:11:57;2.70;;;2.50;;
3331;SDS011;1678;50.94845400;5.30809100;2022-07-29T02:14:28;2.53;;;2.33;;
3331;SDS011;1678;50.94845400;5.30809100;2022-07-29T02:17:04;12.20;;;4.13;;
3331;SDS011;1678;50.94845400;5.30809100;2022-07-29T02:19:33;7.30;;;4.40;;
3331;SDS011;1678;50.94845400;5.30809100;2022-07-29T02:22:04;7.10;;;3.50;;
3331;SDS011;1678;50.94845400;5.30809100;2022-07-29T02:24:34;5.03;;;3.43;;
3331;SDS011;1678;50.94845400;5.30809100;2022-07-29T02:27:04;3.00;;;2.43;;
3331;SDS011;1678;50.94845400;5.30809100;2022-07-29T02:29:32;4.50;;;3.60;;
3331;SDS011;1678;50.94845400;5.30809100;2022-07-29T02:32:03;3.00;;;2.70;;
3331;SDS011;1678;50.94845400;5.30809100;2022-07-29T02:34:34;4.40;;;3.00;;
3331;SDS011;1678;50.94845400;5.30809100;2022-07-29T02:37:05;5.97;;;2.30;;
3331;SDS011;1678;50.94845400;5.30809100;2022-07-29T02:39:35;7.37;;;3.70;;
3331;SDS011;1678;50.94845400;5.30809100;2022-07-29T02:42:05;3.63;;;3.40;;
3331;SDS011;1678;50.94845400;5.30809100;2022-07-29T02:44:37;3.83;;;2.30;;
3331;SDS011;1678;50.94845400;5.30809100;2022-07-29T02:47:10;3.53;;;2.87;;
3331;SDS011;1678;50.94845400;5.30809100;2022-07-29T02:49:46;4.53;;;2.90;;
3331;SDS011;1678;50.94845400;5.30809100;2022-07-29T02:52:20;4.93;;;3.07;;
3331;SDS011;1678;50.94845400;5.30809100;2022-07-29T02:54:54;5.27;;;3.13;;
3331;SDS011;1678;50.94845400;5.30809100;2022-07-29T02:57:28;2.93;;;2.70;;
3331;SDS011;1678;50.94845400;5.30809100;2022-07-29T03:00:20;4.27;;;3.50;;
3331;SDS011;1678;50.94845400;5.30809100;2022-07-29T03:02:52;3.20;;;2.97;;
3331;SDS011;1678;50.94845400;5.30809100;2022-07-29T03:05:23;3.30;;;3.10;;
3331;SDS011;1678;50.94845400;5.30809100;2022-07-29T03:07:54;5.13;;;2.77;;
3331;SDS011;1678;50.94845400;5.30809100;2022-07-29T03:10:24;2.80;;;2.60;;
3331;SDS011;1678;50.94845400;5.30809100;2022-07-29T03:12:53;7.60;;;3.40;;
3331;SDS011;1678;50.94845400;5.30809100;2022-07-29T03:15:24;3.50;;;2.33;;
3331;SDS011;1678;50.94845400;5.30809100;2022-07-29T03:17:54;2.80;;;2.70;;
3331;SDS011;1678;50.94845400;5.30809100;2022-07-29T03:20:24;8.20;;;3.73;;
3331;SDS011;1678;50.94845400;5.30809100;2022-07-29T03:22:52;3.20;;;2.90;;
3331;SDS011;1678;50.94845400;5.30809100;2022-07-29T03:25:20;2.50;;;2.37;;
3331;SDS011;1678;50.94845400;5.30809100;2022-07-29T03:27:48;11.00;;;3.63;;
3331;SDS011;1678;50.94845400;5.30809100;2022-07-29T03:30:16;3.27;;;2.97;;
3331;SDS011;1678;50.94845400;5.30809100;2022-07-29T03:32:47;4.00;;;2.77;;
3331;SDS011;1678;50.94845400;5.30809100;2022-07-29T03:35:19;8.60;;;3.43;;
3331;SDS011;1678;50.94845400;5.30809100;2022-07-29T03:37:47;3.27;;;2.97;;
3331;SDS011;1678;50.94845400;5.30809100;2022-07-29T03:40:18;3.47;;;3.17;;
3331;SDS011;1678;50.94845400;5.30809100;2022-07-29T03:42:49;3.60;;;3.30;;
3331;SDS011;1678;50.94845400;5.30809100;2022-07-29T03:45:19;3.40;;;3.10;;
3331;SDS011;1678;50.94845400;5.30809100;2022-07-29T03:47:49;7.67;;;3.27;;
3331;SDS011;1678;50.94845400;5.30809100;2022-07-29T03:50:27;3.27;;;2.33;;
3331;SDS011;1678;50.94845400;5.30809100;2022-07-29T03:52:57;3.00;;;2.90;;
3331;SDS011;1678;50.94845400;5.30809100;2022-07-29T03:55:27;6.20;;;3.60;;
3331;SDS011;1678;50.94845400;5.30809100;2022-07-29T03:57:59;3.10;;;2.73;;
3331;SDS011;1678;50.94845400;5.30809100;2022-07-29T04:00:29;4.50;;;3.57;;
3331;SDS011;1678;50.94845400;5.30809100;2022-07-29T04:02:59;3.73;;;3.30;;
3331;SDS011;1678;50.94845400;5.30809100;2022-07-29T04:05:29;5.17;;;3.23;;
3331;SDS011;1678;50.94845400;5.30809100;2022-07-29T04:07:58;5.83;;;2.50;;
3331;SDS011;1678;50.94845400;5.30809100;2022-07-29T04:10:26;3.93;;;3.73;;
3331;SDS011;1678;50.94845400;5.30809100;2022-07-29T04:12:57;5.10;;;3.63;;
3331;SDS011;1678;50.94845400;5.30809100;2022-07-29T04:15:25;3.43;;;3.20;;
3331;SDS011;1678;50.94845400;5.30809100;2022-07-29T04:17:57;2.83;;;2.60;;
3331;SDS011;1678;50.94845400;5.30809100;2022-07-29T04:20:25;3.07;;;2.60;;
3331;SDS011;1678;50.94845400;5.30809100;2022-07-29T04:22:55;3.90;;;3.70;;
3331;SDS011;1678;50.94845400;5.30809100;2022-07-29T04:25:23;3.00;;;2.90;;
3331;SDS011;1678;50.94845400;5.30809100;2022-07-29T04:27:51;3.53;;;3.43;;
3331;SDS011;1678;50.94845400;5.30809100;2022-07-29T04:30:28;3.53;;;3.30;;
3331;SDS011;1678;50.94845400;5.30809100;2022-07-29T04:32:56;4.63;;;4.23;;
3331;SDS011;1678;50.94845400;5.30809100;2022-07-29T04:35:24;4.67;;;4.10;;
3331;SDS011;1678;50.94845400;5.30809100;2022-07-29T04:37:53;6.07;;;4.53;;
3331;SDS011;1678;50.94845400;5.30809100;2022-07-29T04:40:22;5.57;;;5.17;;
3331;SDS011;1678;50.94845400;5.30809100;2022-07-29T04:42:50;9.73;;;5.27;;
3331;SDS011;1678;50.94845400;5.30809100;2022-07-29T04:45:19;4.80;;;4.40;;
3331;SDS011;1678;50.94845400;5.30809100;2022-07-29T04:47:48;7.13;;;4.80;;
3331;SDS011;1678;50.94845400;5.30809100;2022-07-29T04:50:16;6.73;;;3.80;;
3331;SDS011;1678;50.94845400;5.30809100;2022-07-29T04:52:44;5.27;;;4.87;;
3331;SDS011;1678;50.94845400;5.30809100;2022-07-29T04:55:13;8.57;;;4.13;;
3331;SDS011;1678;50.94845400;5.30809100;2022-07-29T04:57:41;5.07;;;4.13;;
3331;SDS011;1678;50.94845400;5.30809100;2022-07-29T05:00:10;8.63;;;3.87;;
3331;SDS011;1678;50.94845400;5.30809100;2022-07-29T05:02:38;15.97;;;6.77;;
3331;SDS011;1678;50.94845400;5.30809100;2022-07-29T05:05:07;7.50;;;5.70;;
3331;SDS011;1678;50.94845400;5.30809100;2022-07-29T05:07:36;5.17;;;4.67;;
3331;SDS011;1678;50.94845400;5.30809100;2022-07-29T05:10:04;9.70;;;5.23;;
3331;SDS011;1678;50.94845400;5.30809100;2022-07-29T05:12:34;14.73;;;6.10;;
3331;SDS011;1678;50.94845400;5.30809100;2022-07-29T05:15:02;6.17;;;5.67;;
3331;SDS011;1678;50.94845400;5.30809100;2022-07-29T05:17:31;5.27;;;4.93;;
3331;SDS011;1678;50.94845400;5.30809100;2022-07-29T05:19:59;10.83;;;6.30;;
3331;SDS011;1678;50.94845400;5.30809100;2022-07-29T05:22:29;8.90;;;6.33;;
3331;SDS011;1678;50.94845400;5.30809100;2022-07-29T05:24:57;8.30;;;7.53;;
3331;SDS011;1678;50.94845400;5.30809100;2022-07-29T05:27:28;7.50;;;6.77;;
3331;SDS011;1678;50.94845400;5.30809100;2022-07-29T05:29:57;11.73;;;7.60;;
3331;SDS011;1678;50.94845400;5.30809100;2022-07-29T05:32:25;10.30;;;7.30;;
3331;SDS011;1678;50.94845400;5.30809100;2022-07-29T05:34:53;8.37;;;7.27;;
3331;SDS011;1678;50.94845400;5.30809100;2022-07-29T05:37:22;10.23;;;6.70;;
3331;SDS011;1678;50.94845400;5.30809100;2022-07-29T05:39:50;7.27;;;6.77;;
3331;SDS011;1678;50.94845400;5.30809100;2022-07-29T05:42:22;7.83;;;7.27;;
3331;SDS011;1678;50.94845400;5.30809100;2022-07-29T05:44:51;7.23;;;6.57;;
3331;SDS011;1678;50.94845400;5.30809100;2022-07-29T05:47:20;10.33;;;5.70;;
3331;SDS011;1678;50.94845400;5.30809100;2022-07-29T05:49:49;8.23;;;7.50;;
3331;SDS011;1678;50.94845400;5.30809100;2022-07-29T05:52:17;7.50;;;6.73;;
3331;SDS011;1678;50.94845400;5.30809100;2022-07-29T05:54:46;6.87;;;6.30;;
3331;SDS011;1678;50.94845400;5.30809100;2022-07-29T05:57:17;6.30;;;5.90;;
3331;SDS011;1678;50.94845400;5.30809100;2022-07-29T05:59:47;7.10;;;6.33;;
3331;SDS011;1678;50.94845400;5.30809100;2022-07-29T06:02:15;6.50;;;5.77;;
3331;SDS011;1678;50.94845400;5.30809100;2022-07-29T06:04:45;6.67;;;6.17;;
3331;SDS011;1678;50.94845400;5.30809100;2022-07-29T06:07:13;5.17;;;4.70;;
3331;SDS011;1678;50.94845400;5.30809100;2022-07-29T06:09:42;5.83;;;5.17;;
3331;SDS011;1678;50.94845400;5.30809100;2022-07-29T06:12:10;6.07;;;5.60;;
3331;SDS011;1678;50.94845400;5.30809100;2022-07-29T06:14:38;9.17;;;5.90;;
3331;SDS011;1678;50.94845400;5.30809100;2022-07-29T06:17:06;6.60;;;5.70;;
3331;SDS011;1678;50.94845400;5.30809100;2022-07-29T06:19:34;5.93;;;5.57;;
3331;SDS011;1678;50.94845400;5.30809100;2022-07-29T06:22:04;5.80;;;5.50;;
3331;SDS011;1678;50.94845400;5.30809100;2022-07-29T06:24:32;12.53;;;7.13;;
3331;SDS011;1678;50.94845400;5.30809100;2022-07-29T06:27:00;5.40;;;5.00;;
3331;SDS011;1678;50.94845400;5.30809100;2022-07-29T06:29:28;6.03;;;5.57;;
3331;SDS011;1678;50.94845400;5.30809100;2022-07-29T06:31:56;7.03;;;6.03;;
3331;SDS011;1678;50.94845400;5.30809100;2022-07-29T06:34:25;6.37;;;5.83;;
3331;SDS011;1678;50.94845400;5.30809100;2022-07-29T06:36:53;6.67;;;6.00;;
3331;SDS011;1678;50.94845400;5.30809100;2022-07-29T06:39:22;6.10;;;5.77;;
3331;SDS011;1678;50.94845400;5.30809100;2022-07-29T06:41:50;8.93;;;6.00;;
3331;SDS011;1678;50.94845400;5.30809100;2022-07-29T06:44:19;6.10;;;5.50;;
3331;SDS011;1678;50.94845400;5.30809100;2022-07-29T06:46:47;6.87;;;6.27;;
3331;SDS011;1678;50.94845400;5.30809100;2022-07-29T06:49:17;5.90;;;5.43;;
3331;SDS011;1678;50.94845400;5.30809100;2022-07-29T06:51:45;5.97;;;5.57;;
3331;SDS011;1678;50.94845400;5.30809100;2022-07-29T06:54:13;8.43;;;6.90;;
3331;SDS011;1678;50.94845400;5.30809100;2022-07-29T06:56:44;6.50;;;6.00;;
3331;SDS011;1678;50.94845400;5.30809100;2022-07-29T06:59:12;6.33;;;5.47;;
3331;SDS011;1678;50.94845400;5.30809100;2022-07-29T07:01:41;6.77;;;5.90;;
3331;SDS011;1678;50.94845400;5.30809100;2022-07-29T07:04:10;6.87;;;5.70;;
3331;SDS011;1678;50.94845400;5.30809100;2022-07-29T07:06:40;7.37;;;6.77;;
3331;SDS011;1678;50.94845400;5.30809100;2022-07-29T07:09:08;7.70;;;5.37;;
3331;SDS011;1678;50.94845400;5.30809100;2022-07-29T07:11:38;9.07;;;5.83;;
3331;SDS011;1678;50.94845400;5.30809100;2022-07-29T07:14:08;8.73;;;5.80;;
3331;SDS011;1678;50.94845400;5.30809100;2022-07-29T07:16:36;6.30;;;5.10;;
3331;SDS011;1678;50.94845400;5.30809100;2022-07-29T07:19:04;5.73;;;5.33;;
3331;SDS011;1678;50.94845400;5.30809100;2022-07-29T07:21:32;5.77;;;5.50;;
3331;SDS011;1678;50.94845400;5.30809100;2022-07-29T07:24:01;6.37;;;5.77;;
3331;SDS011;1678;50.94845400;5.30809100;2022-07-29T07:26:29;6.40;;;5.90;;
3331;SDS011;1678;50.94845400;5.30809100;2022-07-29T07:28:58;7.47;;;6.07;;
3331;SDS011;1678;50.94845400;5.30809100;2022-07-29T07:31:28;5.63;;;5.23;;
3331;SDS011;1678;50.94845400;5.30809100;2022-07-29T07:33:56;6.37;;;5.97;;
3331;SDS011;1678;50.94845400;5.30809100;2022-07-29T07:36:24;6.83;;;6.33;;
3331;SDS011;1678;50.94845400;5.30809100;2022-07-29T07:38:52;5.27;;;4.97;;
3331;SDS011;1678;50.94845400;5.30809100;2022-07-29T07:41:20;6.40;;;5.80;;
3331;SDS011;1678;50.94845400;5.30809100;2022-07-29T07:43:48;4.87;;;4.57;;
3331;SDS011;1678;50.94845400;5.30809100;2022-07-29T07:46:17;6.10;;;4.97;;
3331;SDS011;1678;50.94845400;5.30809100;2022-07-29T07:48:47;23.63;;;6.60;;
3331;SDS011;1678;50.94845400;5.30809100;2022-07-29T07:51:15;5.20;;;4.70;;
3331;SDS011;1678;50.94845400;5.30809100;2022-07-29T07:53:43;7.13;;;4.57;;
3331;SDS011;1678;50.94845400;5.30809100;2022-07-29T07:56:11;6.27;;;4.80;;
3331;SDS011;1678;50.94845400;5.30809100;2022-07-29T07:58:39;4.67;;;4.20;;
3331;SDS011;1678;50.94845400;5.30809100;2022-07-29T08:01:07;4.53;;;4.37;;
3331;SDS011;1678;50.94845400;5.30809100;2022-07-29T08:03:35;4.90;;;4.60;;
3331;SDS011;1678;50.94845400;5.30809100;2022-07-29T08:06:05;6.10;;;4.40;;
3331;SDS011;1678;50.94845400;5.30809100;2022-07-29T08:08:33;4.23;;;3.93;;
3331;SDS011;1678;50.94845400;5.30809100;2022-07-29T08:11:02;4.40;;;4.03;;
3331;SDS011;1678;50.94845400;5.30809100;2022-07-29T08:13:35;4.80;;;4.50;;
3331;SDS011;1678;50.94845400;5.30809100;2022-07-29T08:16:04;4.30;;;4.00;;
3331;SDS011;1678;50.94845400;5.30809100;2022-07-29T08:18:41;12.23;;;4.67;;
3331;SDS011;1678;50.94845400;5.30809100;2022-07-29T08:21:12;5.50;;;4.67;;
3331;SDS011;1678;50.94845400;5.30809100;2022-07-29T08:23:42;10.30;;;3.77;;
3331;SDS011;1678;50.94845400;5.30809100;2022-07-29T08:26:26;4.80;;;4.23;;
3331;SDS011;1678;50.94845400;5.30809100;2022-07-29T08:28:54;4.50;;;4.30;;
3331;SDS011;1678;50.94845400;5.30809100;2022-07-29T08:31:22;5.20;;;4.50;;
3331;SDS011;1678;50.94845400;5.30809100;2022-07-29T08:33:50;7.70;;;3.87;;
3331;SDS011;1678;50.94845400;5.30809100;2022-07-29T08:36:19;9.90;;;4.67;;
3331;SDS011;1678;50.94845400;5.30809100;2022-07-29T08:38:48;4.03;;;3.73;;
3331;SDS011;1678;50.94845400;5.30809100;2022-07-29T08:41:17;3.50;;;3.27;;
3331;SDS011;1678;50.94845400;5.30809100;2022-07-29T08:43:46;4.57;;;4.27;;
3331;SDS011;1678;50.94845400;5.30809100;2022-07-29T08:46:14;4.67;;;4.37;;
3331;SDS011;1678;50.94845400;5.30809100;2022-07-29T08:48:43;4.30;;;4.00;;
3331;SDS011;1678;50.94845400;5.30809100;2022-07-29T08:51:13;3.40;;;3.30;;
3331;SDS011;1678;50.94845400;5.30809100;2022-07-29T08:53:43;5.60;;;5.20;;
3331;SDS011;1678;50.94845400;5.30809100;2022-07-29T08:56:15;4.03;;;3.73;;
3331;SDS011;1678;50.94845400;5.30809100;2022-07-29T08:58:44;4.30;;;4.07;;
3331;SDS011;1678;50.94845400;5.30809100;2022-07-29T09:01:20;5.90;;;4.90;;
3331;SDS011;1678;50.94845400;5.30809100;2022-07-29T09:04:03;4.77;;;4.37;;
3331;SDS011;1678;50.94845400;5.30809100;2022-07-29T09:06:36;3.87;;;3.70;;
3331;SDS011;1678;50.94845400;5.30809100;2022-07-29T09:09:09;3.50;;;3.30;;
3331;SDS011;1678;50.94845400;5.30809100;2022-07-29T09:11:38;4.63;;;4.27;;
3331;SDS011;1678;50.94845400;5.30809100;2022-07-29T09:14:06;4.00;;;3.63;;
3331;SDS011;1678;50.94845400;5.30809100;2022-07-29T09:16:45;4.20;;;4.10;;
3331;SDS011;1678;50.94845400;5.30809100;2022-07-29T09:19:27;3.60;;;3.30;;
3331;SDS011;1678;50.94845400;5.30809100;2022-07-29T09:21:58;4.93;;;4.13;;
3331;SDS011;1678;50.94845400;5.30809100;2022-07-29T09:24:43;10.20;;;5.10;;
3331;SDS011;1678;50.94845400;5.30809100;2022-07-29T09:27:20;7.00;;;4.30;;
3331;SDS011;1678;50.94845400;5.30809100;2022-07-29T09:29:56;4.47;;;3.50;;
3331;SDS011;1678;50.94845400;5.30809100;2022-07-29T09:32:25;5.03;;;4.63;;
3331;SDS011;1678;50.94845400;5.30809100;2022-07-29T09:37:44;5.10;;;3.17;;
3331;SDS011;1678;50.94845400;5.30809100;2022-07-29T09:40:15;4.00;;;3.70;;
3331;SDS011;1678;50.94845400;5.30809100;2022-07-29T09:42:46;4.03;;;3.60;;
3331;SDS011;1678;50.94845400;5.30809100;2022-07-29T09:45:26;2.97;;;2.87;;
3331;SDS011;1678;50.94845400;5.30809100;2022-07-29T09:47:56;3.67;;;3.37;;
3331;SDS011;1678;50.94845400;5.30809100;2022-07-29T09:50:36;4.63;;;3.97;;
3331;SDS011;1678;50.94845400;5.30809100;2022-07-29T09:53:05;3.50;;;3.40;;
3331;SDS011;1678;50.94845400;5.30809100;2022-07-29T09:55:46;3.87;;;3.57;;
3331;SDS011;1678;50.94845400;5.30809100;2022-07-29T09:58:18;6.73;;;2.60;;
3331;SDS011;1678;50.94845400;5.30809100;2022-07-29T10:00:47;3.27;;;2.93;;
3331;SDS011;1678;50.94845400;5.30809100;2022-07-29T10:03:17;3.17;;;2.63;;
3331;SDS011;1678;50.94845400;5.30809100;2022-07-29T10:05:48;2.70;;;2.50;;
3331;SDS011;1678;50.94845400;5.30809100;2022-07-29T10:08:31;3.93;;;2.53;;
3331;SDS011;1678;50.94845400;5.30809100;2022-07-29T10:11:10;1.53;;;1.53;;
3331;SDS011;1678;50.94845400;5.30809100;2022-07-29T10:13:39;2.30;;;2.10;;
3331;SDS011;1678;50.94845400;5.30809100;2022-07-29T10:16:08;4.10;;;3.73;;
3331;SDS011;1678;50.94845400;5.30809100;2022-07-29T10:18:39;5.20;;;3.20;;
3331;SDS011;1678;50.94845400;5.30809100;2022-07-29T10:21:08;3.33;;;2.10;;
3331;SDS011;1678;50.94845400;5.30809100;2022-07-29T10:23:57;11.87;;;2.37;;
3331;SDS011;1678;50.94845400;5.30809100;2022-07-29T10:26:28;3.07;;;2.20;;
3331;SDS011;1678;50.94845400;5.30809100;2022-07-29T10:28:57;4.10;;;3.27;;
3331;SDS011;1678;50.94845400;5.30809100;2022-07-29T10:31:26;2.43;;;2.23;;
3331;SDS011;1678;50.94845400;5.30809100;2022-07-29T10:34:01;3.00;;;2.77;;
3331;SDS011;1678;50.94845400;5.30809100;2022-07-29T10:36:38;2.40;;;2.33;;
3331;SDS011;1678;50.94845400;5.30809100;2022-07-29T10:39:20;3.90;;;2.63;;
3331;SDS011;1678;50.94845400;5.30809100;2022-07-29T10:42:13;2.57;;;2.10;;
3331;SDS011;1678;50.94845400;5.30809100;2022-07-29T10:44:58;3.33;;;3.13;;
3331;SDS011;1678;50.94845400;5.30809100;2022-07-29T10:47:27;2.90;;;2.40;;
3331;SDS011;1678;50.94845400;5.30809100;2022-07-29T10:49:56;2.20;;;2.10;;
3331;SDS011;1678;50.94845400;5.30809100;2022-07-29T10:55:32;1.93;;;1.73;;
3331;SDS011;1678;50.94845400;5.30809100;2022-07-29T10:58:14;3.23;;;2.27;;
3331;SDS011;1678;50.94845400;5.30809100;2022-07-29T11:00:46;3.53;;;2.67;;
3331;SDS011;1678;50.94845400;5.30809100;2022-07-29T11:06:16;2.10;;;2.00;;
3331;SDS011;1678;50.94845400;5.30809100;2022-07-29T11:12:00;6.20;;;2.30;;
3331;SDS011;1678;50.94845400;5.30809100;2022-07-29T11:17:27;4.10;;;1.93;;
3331;SDS011;1678;50.94845400;5.30809100;2022-07-29T11:20:31;3.00;;;2.70;;
3331;SDS011;1678;50.94845400;5.30809100;2022-07-29T11:23:23;2.50;;;2.10;;
3331;SDS011;1678;50.94845400;5.30809100;2022-07-29T11:28:51;3.63;;;2.53;;
3331;SDS011;1678;50.94845400;5.30809100;2022-07-29T11:31:37;3.53;;;2.10;;
3331;SDS011;1678;50.94845400;5.30809100;2022-07-29T11:34:24;4.37;;;1.80;;
3331;SDS011;1678;50.94845400;5.30809100;2022-07-29T11:37:14;2.47;;;2.37;;
3331;SDS011;1678;50.94845400;5.30809100;2022-07-29T11:40:13;2.37;;;2.37;;
3331;SDS011;1678;50.94845400;5.30809100;2022-07-29T11:42:46;3.80;;;2.20;;
3331;SDS011;1678;50.94845400;5.30809100;2022-07-29T11:45:24;4.10;;;2.73;;
3331;SDS011;1678;50.94845400;5.30809100;2022-07-29T11:48:18;3.63;;;2.47;;
3331;SDS011;1678;50.94845400;5.30809100;2022-07-29T11:50:55;4.30;;;1.73;;
3331;SDS011;1678;50.94845400;5.30809100;2022-07-29T11:53:24;2.37;;;2.27;;
3331;SDS011;1678;50.94845400;5.30809100;2022-07-29T11:55:58;2.70;;;2.60;;
3331;SDS011;1678;50.94845400;5.30809100;2022-07-29T11:58:28;4.60;;;2.17;;
3331;SDS011;1678;50.94845400;5.30809100;2022-07-29T12:00:57;2.93;;;2.73;;
3331;SDS011;1678;50.94845400;5.30809100;2022-07-29T12:03:31;4.20;;;2.27;;
3331;SDS011;1678;50.94845400;5.30809100;2022-07-29T12:06:02;2.57;;;2.30;;
3331;SDS011;1678;50.94845400;5.30809100;2022-07-29T12:08:39;3.77;;;2.27;;
3331;SDS011;1678;50.94845400;5.30809100;2022-07-29T12:11:16;1.90;;;1.80;;
3331;SDS011;1678;50.94845400;5.30809100;2022-07-29T12:13:48;3.47;;;2.23;;
3331;SDS011;1678;50.94845400;5.30809100;2022-07-29T12:16:16;1.90;;;1.80;;
3331;SDS011;1678;50.94845400;5.30809100;2022-07-29T12:18:59;2.60;;;1.97;;
3331;SDS011;1678;50.94845400;5.30809100;2022-07-29T12:21:29;2.63;;;1.90;;
3331;SDS011;1678;50.94845400;5.30809100;2022-07-29T12:24:17;2.10;;;2.00;;
3331;SDS011;1678;50.94845400;5.30809100;2022-07-29T12:26:51;2.53;;;2.33;;
3331;SDS011;1678;50.94845400;5.30809100;2022-07-29T12:29:20;3.60;;;1.23;;
3331;SDS011;1678;50.94845400;5.30809100;2022-07-29T12:32:00;2.50;;;1.80;;
3331;SDS011;1678;50.94845400;5.30809100;2022-07-29T12:34:41;1.60;;;1.40;;
3331;SDS011;1678;50.94845400;5.30809100;2022-07-29T12:37:09;6.43;;;1.23;;
3331;SDS011;1678;50.94845400;5.30809100;2022-07-29T12:39:37;3.73;;;1.50;;
3331;SDS011;1678;50.94845400;5.30809100;2022-07-29T12:42:10;3.87;;;2.00;;
3331;SDS011;1678;50.94845400;5.30809100;2022-07-29T12:44:43;2.30;;;2.10;;
3331;SDS011;1678;50.94845400;5.30809100;2022-07-29T12:47:12;1.40;;;1.40;;
3331;SDS011;1678;50.94845400;5.30809100;2022-07-29T12:49:42;2.40;;;1.70;;
3331;SDS011;1678;50.94845400;5.30809100;2022-07-29T12:52:23;1.60;;;1.50;;
3331;SDS011;1678;50.94845400;5.30809100;2022-07-29T12:54:52;1.43;;;1.37;;
3331;SDS011;1678;50.94845400;5.30809100;2022-07-29T12:57:20;1.27;;;1.27;;
3331;SDS011;1678;50.94845400;5.30809100;2022-07-29T12:59:58;1.80;;;1.70;;
3331;SDS011;1678;50.94845400;5.30809100;2022-07-29T13:02:36;1.33;;;1.33;;
3331;SDS011;1678;50.94845400;5.30809100;2022-07-29T13:05:07;2.07;;;1.87;;
3331;SDS011;1678;50.94845400;5.30809100;2022-07-29T13:07:37;1.77;;;1.67;;
3331;SDS011;1678;50.94845400;5.30809100;2022-07-29T13:10:22;1.70;;;1.70;;
3331;SDS011;1678;50.94845400;5.30809100;2022-07-29T13:13:06;1.10;;;1.10;;
3331;SDS011;1678;50.94845400;5.30809100;2022-07-29T13:15:36;7.47;;;2.07;;
3331;SDS011;1678;50.94845400;5.30809100;2022-07-29T13:18:05;1.73;;;1.73;;
3331;SDS011;1678;50.94845400;5.30809100;2022-07-29T13:20:55;3.33;;;1.70;;
3331;SDS011;1678;50.94845400;5.30809100;2022-07-29T13:23:24;1.63;;;1.63;;
3331;SDS011;1678;50.94845400;5.30809100;2022-07-29T13:25:52;1.93;;;1.87;;
3331;SDS011;1678;50.94845400;5.30809100;2022-07-29T13:28:20;1.23;;;1.23;;
3331;SDS011;1678;50.94845400;5.30809100;2022-07-29T13:30:48;1.80;;;1.77;;
3331;SDS011;1678;50.94845400;5.30809100;2022-07-29T13:33:17;4.53;;;1.63;;
3331;SDS011;1678;50.94845400;5.30809100;2022-07-29T13:35:45;1.67;;;1.57;;
3331;SDS011;1678;50.94845400;5.30809100;2022-07-29T13:38:15;1.47;;;1.43;;
3331;SDS011;1678;50.94845400;5.30809100;2022-07-29T13:40:43;1.60;;;1.50;;
3331;SDS011;1678;50.94845400;5.30809100;2022-07-29T13:43:11;1.33;;;1.07;;
3331;SDS011;1678;50.94845400;5.30809100;2022-07-29T13:45:39;0.93;;;0.93;;
3331;SDS011;1678;50.94845400;5.30809100;2022-07-29T13:48:07;1.40;;;1.40;;
3331;SDS011;1678;50.94845400;5.30809100;2022-07-29T13:50:36;1.43;;;1.40;;
3331;SDS011;1678;50.94845400;5.30809100;2022-07-29T13:53:04;4.27;;;1.20;;